createdAt,value
2018-12-07T00:05:07.574Z,21.46
2018-12-07T00:11:02.627Z,23.82
2018-12-07T00:16:57.640Z,25
2018-12-07T00:22:52.593Z,19.17
2018-12-07T00:28:47.579Z,16.8
2018-12-07T00:34:42.632Z,19.13
2018-12-07T00:40:37.587Z,21.3
2018-12-07T00:46:32.594Z,18.78
2018-12-07T00:52:27.643Z,15.36
2018-12-07T00:58:22.615Z,20.13
2018-12-07T01:04:17.593Z,15.63
2018-12-07T01:10:12.607Z,24.5
2018-12-07T01:16:07.623Z,25.67
2018-12-07T01:22:02.625Z,23.93
2018-12-07T01:27:57.614Z,23.15
2018-12-07T01:33:52.625Z,18.07
2018-12-07T01:39:47.659Z,19.36
2018-12-07T01:45:42.665Z,17.77
2018-12-07T01:51:37.632Z,15.1
2018-12-07T01:57:32.630Z,17.35
2018-12-07T02:03:27.641Z,19.51
2018-12-07T02:09:22.638Z,18.42
2018-12-07T02:15:17.639Z,16.69
2018-12-07T02:21:12.687Z,17.9
2018-12-07T02:27:07.642Z,15.59
2018-12-07T02:33:02.667Z,24.28
2018-12-07T02:38:57.665Z,22.47
2018-12-07T02:44:52.671Z,20.04
2018-12-07T02:50:47.695Z,18.59
2018-12-07T02:56:42.655Z,23.96
2018-12-07T03:02:37.686Z,14.64
2018-12-07T03:08:32.701Z,17.58
2018-12-07T03:14:27.698Z,19.92
2018-12-07T03:20:22.699Z,19.08
2018-12-07T03:26:17.724Z,14.47
2018-12-07T03:32:12.703Z,24.28
2018-12-07T03:38:07.712Z,27.4
2018-12-07T03:44:02.713Z,25.37
2018-12-07T03:49:57.763Z,19.75
2018-12-07T03:55:52.715Z,21.4
2018-12-07T04:01:47.774Z,20.86
2018-12-07T04:07:42.727Z,15.92
2018-12-07T04:13:37.736Z,15.73
2018-12-07T04:19:32.733Z,21.41
2018-12-07T04:25:27.731Z,16.58
2018-12-07T04:31:22.722Z,15.29
2018-12-07T04:37:17.733Z,11.26
2018-12-07T04:43:12.720Z,13.9
2018-12-07T04:49:07.756Z,14.93
2018-12-07T04:55:02.719Z,17.05
2018-12-07T05:00:57.741Z,18.06
2018-12-07T05:06:52.802Z,22.84
2018-12-07T05:12:47.761Z,17.78
2018-12-07T05:18:42.747Z,20.02
2018-12-07T05:24:37.737Z,13.1
2018-12-07T05:30:32.790Z,14.67
2018-12-07T05:36:27.766Z,14.77
2018-12-07T05:42:22.798Z,13.93
2018-12-07T05:48:23.564Z,14.02
2018-12-07T05:54:12.803Z,15.72
2018-12-07T06:00:07.783Z,14.01
2018-12-07T06:06:02.860Z,9.95
2018-12-07T06:11:57.770Z,8.14
2018-12-07T06:17:52.789Z,14.2
2018-12-07T06:23:47.782Z,16.53
2018-12-07T06:29:42.793Z,17.51
2018-12-07T06:35:37.798Z,13.89
2018-12-07T06:41:32.799Z,16.35
2018-12-07T06:47:27.809Z,27.71
2018-12-07T06:53:22.782Z,39.66
2018-12-07T06:59:17.808Z,16.83
2018-12-07T07:05:12.832Z,14.36
2018-12-07T07:11:07.823Z,16.43
2018-12-07T07:17:02.846Z,12.4
2018-12-07T07:22:57.863Z,22.32
2018-12-07T07:28:52.810Z,24.45
2018-12-07T07:34:47.847Z,17.05
2018-12-07T07:40:42.835Z,15.82
2018-12-07T07:46:37.851Z,15.03
2018-12-07T07:52:32.882Z,13.97
2018-12-07T07:58:27.816Z,12.75
2018-12-07T08:04:22.833Z,15.49
2018-12-07T08:10:17.829Z,16.01
2018-12-07T08:16:12.850Z,17
2018-12-07T08:22:07.926Z,15.57
2018-12-07T08:28:02.838Z,18.86
2018-12-07T08:33:57.851Z,20.63
2018-12-07T08:39:52.851Z,20.4
2018-12-07T08:45:47.896Z,54.11
2018-12-07T08:51:42.870Z,22.36
2018-12-07T08:57:37.874Z,22.07
2018-12-07T09:03:32.856Z,22.55
2018-12-07T09:09:27.883Z,19.83
2018-12-07T09:15:22.883Z,26.52
2018-12-07T09:21:17.874Z,20.3
2018-12-07T09:27:12.909Z,18.59
2018-12-07T09:33:07.886Z,20.42
2018-12-07T09:39:02.884Z,16.62
2018-12-07T09:44:57.907Z,20.39
2018-12-07T09:50:52.944Z,19.1
2018-12-07T09:56:47.902Z,20.73
2018-12-07T10:02:42.930Z,25.22
2018-12-07T10:08:37.970Z,18
2018-12-07T10:14:32.908Z,21.26
2018-12-07T10:20:27.927Z,19.73
2018-12-07T10:26:22.956Z,22.67
2018-12-07T10:32:17.954Z,17.87
2018-12-07T10:38:12.913Z,22.54
2018-12-07T10:44:07.911Z,19.31
2018-12-07T10:50:02.930Z,18.5
2018-12-07T10:55:57.937Z,18.38
2018-12-07T11:01:52.941Z,20.36
2018-12-07T11:07:47.941Z,18.82
2018-12-07T11:13:42.951Z,23.77
2018-12-07T11:19:37.952Z,14.74
2018-12-07T11:25:32.973Z,13.53
2018-12-07T11:31:27.980Z,14.3
2018-12-07T11:37:23.008Z,16.23
2018-12-07T11:43:17.995Z,15.36
2018-12-07T11:49:13.008Z,13.46
2018-12-07T11:55:07.986Z,13.36
2018-12-07T12:01:02.965Z,13.99
2018-12-07T12:06:57.970Z,11.53
2018-12-07T12:12:52.997Z,18.91
2018-12-07T12:18:47.978Z,9.09
2018-12-07T12:24:42.996Z,11.64
2018-12-07T12:30:38.001Z,12.32
2018-12-07T12:36:33.012Z,12.87
2018-12-07T12:42:27.979Z,17.17
2018-12-07T12:48:23.013Z,8.98
2018-12-07T12:54:18.010Z,11.23
2018-12-07T13:00:13.033Z,10.1
2018-12-07T13:06:08.011Z,12.14
2018-12-07T13:12:02.999Z,11.72
2018-12-07T13:17:58.029Z,16.25
2018-12-07T13:23:53.119Z,11.01
2018-12-07T13:29:48.019Z,12.34
2018-12-07T13:35:43.068Z,11.91
2018-12-07T13:41:38.023Z,11.48
2018-12-07T13:47:33.336Z,12.29
2018-12-07T13:53:28.090Z,12.43
2018-12-07T13:59:23.065Z,14.22
2018-12-07T14:05:18.149Z,13.19
2018-12-07T14:11:13.205Z,17.47
2018-12-07T14:17:08.083Z,45.81
2018-12-07T14:23:03.093Z,25.56
2018-12-07T14:28:58.082Z,24.82
2018-12-07T14:34:53.304Z,19.73
2018-12-07T14:40:48.109Z,18.85
2018-12-07T14:46:43.246Z,14.6
2018-12-07T14:52:38.196Z,20.36
2018-12-07T14:58:33.103Z,17.63
2018-12-07T15:04:28.148Z,28.43
2018-12-07T15:10:23.103Z,21.81
2018-12-07T15:16:18.180Z,20.64
2018-12-07T15:22:13.205Z,20.88
2018-12-07T15:28:08.254Z,22.8
2018-12-07T15:34:03.112Z,17.18
2018-12-07T15:39:58.180Z,21.98
2018-12-07T15:45:53.090Z,19.36
2018-12-07T15:51:48.117Z,22.81
2018-12-07T15:57:43.166Z,24.73
2018-12-07T16:03:38.166Z,25.54
2018-12-07T16:09:33.204Z,29.31
2018-12-07T16:15:28.290Z,19.71
2018-12-07T16:21:23.337Z,17.22
2018-12-07T16:27:18.314Z,19.74
2018-12-07T16:33:13.429Z,19.71
2018-12-07T16:39:08.380Z,25.66
2018-12-07T16:45:03.136Z,20.93
2018-12-07T16:50:58.449Z,22.47
2018-12-07T16:56:53.142Z,32.72
2018-12-07T17:02:48.321Z,27.2
2018-12-07T17:08:43.196Z,23.6
2018-12-07T17:14:38.321Z,20.84
2018-12-07T17:20:33.373Z,22.31
2018-12-07T17:26:28.196Z,20.84
2018-12-07T17:32:23.225Z,41.05
2018-12-07T17:38:18.311Z,21.67
2018-12-07T17:44:13.281Z,18.44
2018-12-07T17:50:08.218Z,24.57
2018-12-07T17:56:03.407Z,25.78
2018-12-07T18:01:58.181Z,26.8
2018-12-07T18:07:53.276Z,25.27
2018-12-07T18:13:48.541Z,25.03
2018-12-07T18:19:43.471Z,23.07
2018-12-07T18:25:38.347Z,26.32
2018-12-07T18:31:33.230Z,28.16
2018-12-07T18:37:28.483Z,32.78
2018-12-07T18:43:23.296Z,34.31
2018-12-07T18:49:18.337Z,34.92
2018-12-07T18:55:13.300Z,31.2
2018-12-07T19:01:08.428Z,33.94
2018-12-07T19:07:03.377Z,31.23
2018-12-07T19:13:00.426Z,34.53
2018-12-07T19:18:53.308Z,38.39
2018-12-07T19:24:48.462Z,40.15
2018-12-07T19:30:43.310Z,41.86
2018-12-07T19:36:38.456Z,44.23
2018-12-07T19:42:33.271Z,44.89
2018-12-07T19:48:28.409Z,63.2
2018-12-07T19:54:23.352Z,55.67
2018-12-07T20:00:18.321Z,56.36
2018-12-07T20:06:13.412Z,49.09
2018-12-07T20:12:08.614Z,48.87
2018-12-07T20:18:03.370Z,41.79
2018-12-07T20:23:58.279Z,43.96
2018-12-07T20:29:53.340Z,44.78
2018-12-07T20:35:48.342Z,45.18
2018-12-07T20:41:43.309Z,42.59
2018-12-07T20:47:38.344Z,43.27
2018-12-07T20:53:33.407Z,40.27
2018-12-07T20:59:28.295Z,43.86
2018-12-07T21:05:23.316Z,43.42
2018-12-07T21:11:18.318Z,43.54
2018-12-07T21:17:13.418Z,42.05
2018-12-07T21:23:08.471Z,37.86
2018-12-07T21:29:03.560Z,37.84
2018-12-07T21:34:58.323Z,35.92
2018-12-07T21:40:53.509Z,34.8
2018-12-07T21:46:48.549Z,38.03
2018-12-07T21:52:43.480Z,35.73
2018-12-07T21:58:38.350Z,35.64
2018-12-07T22:04:33.414Z,36.98
2018-12-07T22:10:28.429Z,32.16
2018-12-07T22:16:23.325Z,38.53
2018-12-07T22:22:18.662Z,30.91
2018-12-07T22:28:13.351Z,34.23
2018-12-07T22:34:08.546Z,33.61
2018-12-07T22:40:03.354Z,31.91
2018-12-07T22:45:58.389Z,25.81
2018-12-07T22:51:53.361Z,19.96
2018-12-07T22:57:48.388Z,12.13
2018-12-07T23:03:43.357Z,14.38
2018-12-07T23:09:38.374Z,7.43
2018-12-07T23:15:33.362Z,5.99
2018-12-07T23:21:28.357Z,10.42
2018-12-07T23:27:23.378Z,11.65
2018-12-07T23:33:18.385Z,9.01
2018-12-07T23:39:13.386Z,7.6
2018-12-07T23:45:08.368Z,14.03
2018-12-07T23:51:03.422Z,8.1
2018-12-07T23:56:58.395Z,11.91
